sensor_id;sensor_type;location;lat;lon;timestamp;temperature;humidity
35746;DHT22;21870;42.812;74.628;2022-12-07T00:01:10;-2.00;99.90
35746;DHT22;21870;42.812;74.628;2022-12-07T00:03:38;-1.90;99.90
35746;DHT22;21870;42.812;74.628;2022-12-07T00:06:07;-1.90;99.90
35746;DHT22;21870;42.812;74.628;2022-12-07T00:08:34;-1.80;99.90
35746;DHT22;21870;42.812;74.628;2022-12-07T00:11:11;-1.80;99.90
35746;DHT22;21870;42.812;74.628;2022-12-07T00:13:38;-1.80;99.90
35746;DHT22;21870;42.812;74.628;2022-12-07T00:16:13;-1.90;99.90
35746;DHT22;21870;42.812;74.628;2022-12-07T00:18:39;-1.90;99.90
35746;DHT22;21870;42.812;74.628;2022-12-07T00:21:09;-1.90;99.90
35746;DHT22;21870;42.812;74.628;2022-12-07T00:23:35;-1.90;99.90
35746;DHT22;21870;42.812;74.628;2022-12-07T00:26:22;-1.90;99.90
35746;DHT22;21870;42.812;74.628;2022-12-07T00:28:50;-1.90;99.90
35746;DHT22;21870;42.812;74.628;2022-12-07T00:31:19;-1.90;99.90
35746;DHT22;21870;42.812;74.628;2022-12-07T00:33:46;-2.10;99.90
35746;DHT22;21870;42.812;74.628;2022-12-07T00:36:15;-2.20;99.90
35746;DHT22;21870;42.812;74.628;2022-12-07T00:38:42;-2.40;99.90
35746;DHT22;21870;42.812;74.628;2022-12-07T00:41:17;-2.40;99.90
35746;DHT22;21870;42.812;74.628;2022-12-07T00:43:44;-2.50;99.90
35746;DHT22;21870;42.812;74.628;2022-12-07T00:46:11;-2.60;99.90
35746;DHT22;21870;42.812;74.628;2022-12-07T00:48:39;-2.60;99.90
35746;DHT22;21870;42.812;74.628;2022-12-07T00:51:05;-2.70;99.90
35746;DHT22;21870;42.812;74.628;2022-12-07T00:53:34;-2.70;99.90
35746;DHT22;21870;42.812;74.628;2022-12-07T00:56:18;-2.70;99.90
35746;DHT22;21870;42.812;74.628;2022-12-07T00:58:50;-2.90;99.90
35746;DHT22;21870;42.812;74.628;2022-12-07T01:01:16;-3.00;99.90
35746;DHT22;21870;42.812;74.628;2022-12-07T01:03:42;-3.00;99.90
35746;DHT22;21870;42.812;74.628;2022-12-07T01:06:08;-3.10;99.90
35746;DHT22;21870;42.812;74.628;2022-12-07T01:08:34;-3.20;99.90
35746;DHT22;21870;42.812;74.628;2022-12-07T01:11:03;-3.20;99.90
35746;DHT22;21870;42.812;74.628;2022-12-07T01:13:31;-3.30;99.90
35746;DHT22;21870;42.812;74.628;2022-12-07T01:15:59;-3.20;99.90
35746;DHT22;21870;42.812;74.628;2022-12-07T01:18:27;-3.20;99.90
35746;DHT22;21870;42.812;74.628;2022-12-07T01:21:01;-3.30;99.90
35746;DHT22;21870;42.812;74.628;2022-12-07T01:23:28;-3.30;99.90
35746;DHT22;21870;42.812;74.628;2022-12-07T01:25:59;-3.30;99.90
35746;DHT22;21870;42.812;74.628;2022-12-07T01:28:28;-3.30;99.90
35746;DHT22;21870;42.812;74.628;2022-12-07T01:30:59;-3.40;99.90
35746;DHT22;21870;42.812;74.628;2022-12-07T01:33:36;-3.40;99.90
35746;DHT22;21870;42.812;74.628;2022-12-07T01:36:21;-3.40;99.90
35746;DHT22;21870;42.812;74.628;2022-12-07T01:38:49;-3.50;99.90
35746;DHT22;21870;42.812;74.628;2022-12-07T01:41:17;-3.40;99.90
35746;DHT22;21870;42.812;74.628;2022-12-07T01:49:37;-3.60;99.90
35746;DHT22;21870;42.812;74.628;2022-12-07T01:54:38;-3.50;99.90
35746;DHT22;21870;42.812;74.628;2022-12-07T01:57:06;-3.40;99.90
35746;DHT22;21870;42.812;74.628;2022-12-07T01:59:34;-3.30;99.90
35746;DHT22;21870;42.812;74.628;2022-12-07T02:02:02;-3.20;99.90
35746;DHT22;21870;42.812;74.628;2022-12-07T02:04:30;-3.20;99.90
35746;DHT22;21870;42.812;74.628;2022-12-07T02:06:57;-3.00;99.90
35746;DHT22;21870;42.812;74.628;2022-12-07T02:09:23;-2.80;99.90
35746;DHT22;21870;42.812;74.628;2022-12-07T02:11:50;-2.70;99.90
35746;DHT22;21870;42.812;74.628;2022-12-07T02:14:16;-2.50;99.90
35746;DHT22;21870;42.812;74.628;2022-12-07T02:22:28;-2.40;99.90
35746;DHT22;21870;42.812;74.628;2022-12-07T02:28:19;-2.30;99.90
35746;DHT22;21870;42.812;74.628;2022-12-07T02:30:50;-2.40;99.90
35746;DHT22;21870;42.812;74.628;2022-12-07T02:33:28;-2.50;99.90
35746;DHT22;21870;42.812;74.628;2022-12-07T02:36:50;-2.40;99.90
35746;DHT22;21870;42.812;74.628;2022-12-07T02:39:02;-2.20;99.90
35746;DHT22;21870;42.812;74.628;2022-12-07T02:41:44;-2.20;99.90
35746;DHT22;21870;42.812;74.628;2022-12-07T02:44:19;-2.20;99.90
35746;DHT22;21870;42.812;74.628;2022-12-07T02:46:54;-2.00;99.90
35746;DHT22;21870;42.812;74.628;2022-12-07T02:49:23;-1.90;99.90
35746;DHT22;21870;42.812;74.628;2022-12-07T02:51:50;-1.70;99.90
35746;DHT22;21870;42.812;74.628;2022-12-07T02:54:19;-1.80;99.90
35746;DHT22;21870;42.812;74.628;2022-12-07T03:02:26;-1.70;99.90
35746;DHT22;21870;42.812;74.628;2022-12-07T03:05:15;-1.60;99.90
35746;DHT22;21870;42.812;74.628;2022-12-07T03:09:08;-1.60;99.90
35746;DHT22;21870;42.812;74.628;2022-12-07T03:11:14;-1.50;99.90
35746;DHT22;21870;42.812;74.628;2022-12-07T03:16:35;-1.50;99.90
35746;DHT22;21870;42.812;74.628;2022-12-07T03:19:15;-1.50;99.90
35746;DHT22;21870;42.812;74.628;2022-12-07T03:22:13;-1.30;99.90
35746;DHT22;21870;42.812;74.628;2022-12-07T03:24:47;-1.20;99.90
35746;DHT22;21870;42.812;74.628;2022-12-07T03:27:27;-1.10;99.90
35746;DHT22;21870;42.812;74.628;2022-12-07T03:30:05;-1.10;99.90
35746;DHT22;21870;42.812;74.628;2022-12-07T03:32:57;-1.00;99.90
35746;DHT22;21870;42.812;74.628;2022-12-07T03:35:34;-1.00;99.90
35746;DHT22;21870;42.812;74.628;2022-12-07T03:38:19;-1.00;99.90
35746;DHT22;21870;42.812;74.628;2022-12-07T03:40:50;-1.00;99.90
35746;DHT22;21870;42.812;74.628;2022-12-07T03:43:18;-0.90;99.90
35746;DHT22;21870;42.812;74.628;2022-12-07T03:48:48;-0.80;99.90
35746;DHT22;21870;42.812;74.628;2022-12-07T03:51:13;-0.80;99.90
35746;DHT22;21870;42.812;74.628;2022-12-07T03:53:48;-0.70;99.90
35746;DHT22;21870;42.812;74.628;2022-12-07T03:56:18;-0.70;99.90
35746;DHT22;21870;42.812;74.628;2022-12-07T03:58:44;-0.60;99.90
35746;DHT22;21870;42.812;74.628;2022-12-07T04:01:10;-0.50;99.90
35746;DHT22;21870;42.812;74.628;2022-12-07T04:03:37;-0.30;99.90
35746;DHT22;21870;42.812;74.628;2022-12-07T04:06:03;-0.10;99.90
35746;DHT22;21870;42.812;74.628;2022-12-07T04:08:29;0.00;99.90
35746;DHT22;21870;42.812;74.628;2022-12-07T04:10:56;0.20;99.90
35746;DHT22;21870;42.812;74.628;2022-12-07T04:13:22;0.20;99.90
35746;DHT22;21870;42.812;74.628;2022-12-07T04:15:48;0.50;99.90
35746;DHT22;21870;42.812;74.628;2022-12-07T04:18:14;0.60;99.90
35746;DHT22;21870;42.812;74.628;2022-12-07T04:20:40;0.70;99.90
35746;DHT22;21870;42.812;74.628;2022-12-07T04:23:06;0.80;99.90
35746;DHT22;21870;42.812;74.628;2022-12-07T04:25:33;0.90;99.90
35746;DHT22;21870;42.812;74.628;2022-12-07T04:27:59;1.10;99.90
35746;DHT22;21870;42.812;74.628;2022-12-07T04:30:25;1.30;99.90
35746;DHT22;21870;42.812;74.628;2022-12-07T04:32:51;1.50;99.90
35746;DHT22;21870;42.812;74.628;2022-12-07T04:35:17;1.60;99.90
35746;DHT22;21870;42.812;74.628;2022-12-07T04:37:43;1.90;99.90
35746;DHT22;21870;42.812;74.628;2022-12-07T04:40:10;2.00;99.90
35746;DHT22;21870;42.812;74.628;2022-12-07T04:42:37;2.10;99.90
35746;DHT22;21870;42.812;74.628;2022-12-07T04:45:03;2.30;99.90
35746;DHT22;21870;42.812;74.628;2022-12-07T04:47:30;2.60;99.90
35746;DHT22;21870;42.812;74.628;2022-12-07T04:49:56;2.70;99.90
35746;DHT22;21870;42.812;74.628;2022-12-07T04:52:22;2.90;99.90
35746;DHT22;21870;42.812;74.628;2022-12-07T04:54:48;3.20;99.90
35746;DHT22;21870;42.812;74.628;2022-12-07T04:57:14;3.40;99.90
35746;DHT22;21870;42.812;74.628;2022-12-07T04:59:40;3.60;99.90
35746;DHT22;21870;42.812;74.628;2022-12-07T05:02:06;3.80;99.90
35746;DHT22;21870;42.812;74.628;2022-12-07T05:04:32;4.00;99.90
35746;DHT22;21870;42.812;74.628;2022-12-07T05:06:58;4.10;99.90
35746;DHT22;21870;42.812;74.628;2022-12-07T05:09:24;4.20;99.90
35746;DHT22;21870;42.812;74.628;2022-12-07T05:11:50;4.30;99.90
35746;DHT22;21870;42.812;74.628;2022-12-07T05:14:19;4.40;99.90
35746;DHT22;21870;42.812;74.628;2022-12-07T05:16:48;4.50;99.90
35746;DHT22;21870;42.812;74.628;2022-12-07T05:19:15;4.70;99.90
35746;DHT22;21870;42.812;74.628;2022-12-07T05:21:41;4.90;99.90
35746;DHT22;21870;42.812;74.628;2022-12-07T05:24:09;5.00;99.90
35746;DHT22;21870;42.812;74.628;2022-12-07T05:26:36;5.00;99.90
35746;DHT22;21870;42.812;74.628;2022-12-07T05:29:02;5.20;99.90
35746;DHT22;21870;42.812;74.628;2022-12-07T05:31:28;5.40;99.90
35746;DHT22;21870;42.812;74.628;2022-12-07T05:33:54;5.50;99.90
35746;DHT22;21870;42.812;74.628;2022-12-07T05:36:21;5.70;99.90
35746;DHT22;21870;42.812;74.628;2022-12-07T05:38:47;5.80;99.90
35746;DHT22;21870;42.812;74.628;2022-12-07T05:41:16;5.70;99.90
35746;DHT22;21870;42.812;74.628;2022-12-07T05:44:01;5.80;99.90
35746;DHT22;21870;42.812;74.628;2022-12-07T05:46:27;5.90;99.90
35746;DHT22;21870;42.812;74.628;2022-12-07T05:48:53;6.10;99.90
35746;DHT22;21870;42.812;74.628;2022-12-07T05:51:19;6.40;99.90
35746;DHT22;21870;42.812;74.628;2022-12-07T05:53:45;6.50;99.90
35746;DHT22;21870;42.812;74.628;2022-12-07T05:56:12;6.60;99.90
35746;DHT22;21870;42.812;74.628;2022-12-07T05:58:38;6.60;99.90
35746;DHT22;21870;42.812;74.628;2022-12-07T06:01:23;6.90;99.90
35746;DHT22;21870;42.812;74.628;2022-12-07T06:03:50;7.10;99.90
35746;DHT22;21870;42.812;74.628;2022-12-07T06:06:16;7.20;99.90
35746;DHT22;21870;42.812;74.628;2022-12-07T06:08:42;7.20;99.90
35746;DHT22;21870;42.812;74.628;2022-12-07T06:11:08;7.50;99.90
35746;DHT22;21870;42.812;74.628;2022-12-07T06:17:15;7.30;99.90
35746;DHT22;21870;42.812;74.628;2022-12-07T06:19:42;7.30;99.40
35746;DHT22;21870;42.812;74.628;2022-12-07T06:22:08;7.40;99.90
35746;DHT22;21870;42.812;74.628;2022-12-07T06:24:36;7.40;99.90
35746;DHT22;21870;42.812;74.628;2022-12-07T06:27:02;7.50;99.90
35746;DHT22;21870;42.812;74.628;2022-12-07T06:29:28;7.60;99.10
35746;DHT22;21870;42.812;74.628;2022-12-07T06:31:54;7.80;98.50
35746;DHT22;21870;42.812;74.628;2022-12-07T06:34:21;8.30;97.20
35746;DHT22;21870;42.812;74.628;2022-12-07T06:36:49;8.30;96.60
35746;DHT22;21870;42.812;74.628;2022-12-07T06:39:21;8.30;97.40
35746;DHT22;21870;42.812;74.628;2022-12-07T06:41:47;8.30;98.20
35746;DHT22;21870;42.812;74.628;2022-12-07T06:44:14;8.30;98.50
35746;DHT22;21870;42.812;74.628;2022-12-07T06:46:40;8.20;97.60
35746;DHT22;21870;42.812;74.628;2022-12-07T06:49:06;8.40;97.40
35746;DHT22;21870;42.812;74.628;2022-12-07T06:51:33;8.40;97.50
35746;DHT22;21870;42.812;74.628;2022-12-07T06:54:05;8.40;97.50
35746;DHT22;21870;42.812;74.628;2022-12-07T06:56:31;8.30;96.60
35746;DHT22;21870;42.812;74.628;2022-12-07T06:58:57;8.30;96.80
35746;DHT22;21870;42.812;74.628;2022-12-07T07:01:23;8.30;96.40
35746;DHT22;21870;42.812;74.628;2022-12-07T07:03:49;8.50;97.10
35746;DHT22;21870;42.812;74.628;2022-12-07T07:06:15;8.60;97.60
35746;DHT22;21870;42.812;74.628;2022-12-07T07:11:09;9.10;99.90
35746;DHT22;21870;42.812;74.628;2022-12-07T07:13:35;8.90;99.70
35746;DHT22;21870;42.812;74.628;2022-12-07T07:16:01;8.80;99.00
35746;DHT22;21870;42.812;74.628;2022-12-07T07:18:28;8.50;98.80
35746;DHT22;21870;42.812;74.628;2022-12-07T07:20:54;8.30;99.00
35746;DHT22;21870;42.812;74.628;2022-12-07T07:23:21;8.20;98.20
35746;DHT22;21870;42.812;74.628;2022-12-07T07:25:47;7.90;98.80
35746;DHT22;21870;42.812;74.628;2022-12-07T07:28:14;8.00;99.50
35746;DHT22;21870;42.812;74.628;2022-12-07T07:30:41;8.10;98.50
35746;DHT22;21870;42.812;74.628;2022-12-07T07:33:07;7.90;99.10
35746;DHT22;21870;42.812;74.628;2022-12-07T07:35:34;7.80;99.00
35746;DHT22;21870;42.812;74.628;2022-12-07T07:38:00;8.00;98.70
35746;DHT22;21870;42.812;74.628;2022-12-07T07:40:27;7.90;98.80
35746;DHT22;21870;42.812;74.628;2022-12-07T07:42:56;7.80;99.10
35746;DHT22;21870;42.812;74.628;2022-12-07T07:45:26;7.60;99.50
35746;DHT22;21870;42.812;74.628;2022-12-07T07:47:53;7.30;99.90
35746;DHT22;21870;42.812;74.628;2022-12-07T07:50:20;7.00;99.90
35746;DHT22;21870;42.812;74.628;2022-12-07T07:52:46;6.90;99.90
35746;DHT22;21870;42.812;74.628;2022-12-07T07:55:13;6.90;99.90
35746;DHT22;21870;42.812;74.628;2022-12-07T07:57:40;7.30;99.90
35746;DHT22;21870;42.812;74.628;2022-12-07T08:00:09;7.70;99.90
35746;DHT22;21870;42.812;74.628;2022-12-07T08:02:36;7.90;98.90
35746;DHT22;21870;42.812;74.628;2022-12-07T08:05:02;8.10;99.90
35746;DHT22;21870;42.812;74.628;2022-12-07T08:07:28;8.20;99.90
35746;DHT22;21870;42.812;74.628;2022-12-07T08:09:55;8.00;99.90
35746;DHT22;21870;42.812;74.628;2022-12-07T08:12:21;7.80;99.90
35746;DHT22;21870;42.812;74.628;2022-12-07T08:14:47;7.40;99.90
35746;DHT22;21870;42.812;74.628;2022-12-07T08:17:13;7.20;99.90
35746;DHT22;21870;42.812;74.628;2022-12-07T08:19:39;6.90;99.90
35746;DHT22;21870;42.812;74.628;2022-12-07T08:22:05;6.60;99.90
35746;DHT22;21870;42.812;74.628;2022-12-07T08:24:35;6.60;99.90
35746;DHT22;21870;42.812;74.628;2022-12-07T08:27:02;6.60;99.90
35746;DHT22;21870;42.812;74.628;2022-12-07T08:29:29;6.60;99.90
35746;DHT22;21870;42.812;74.628;2022-12-07T08:31:55;6.50;99.90
35746;DHT22;21870;42.812;74.628;2022-12-07T08:34:21;6.40;99.90
35746;DHT22;21870;42.812;74.628;2022-12-07T08:36:47;6.40;99.90
35746;DHT22;21870;42.812;74.628;2022-12-07T08:39:13;6.40;99.90
35746;DHT22;21870;42.812;74.628;2022-12-07T08:41:39;6.40;99.90
35746;DHT22;21870;42.812;74.628;2022-12-07T08:44:06;6.40;99.90
35746;DHT22;21870;42.812;74.628;2022-12-07T08:46:41;6.30;99.90
35746;DHT22;21870;42.812;74.628;2022-12-07T08:51:40;6.00;99.90
35746;DHT22;21870;42.812;74.628;2022-12-07T08:54:11;5.80;99.90
35746;DHT22;21870;42.812;74.628;2022-12-07T08:56:38;5.70;99.90
35746;DHT22;21870;42.812;74.628;2022-12-07T08:59:05;5.50;99.90
35746;DHT22;21870;42.812;74.628;2022-12-07T09:01:32;5.40;99.90
35746;DHT22;21870;42.812;74.628;2022-12-07T09:03:58;5.30;99.90
35746;DHT22;21870;42.812;74.628;2022-12-07T09:06:25;5.30;99.90
35746;DHT22;21870;42.812;74.628;2022-12-07T09:08:54;5.30;99.90
35746;DHT22;21870;42.812;74.628;2022-12-07T09:11:22;5.20;99.90
35746;DHT22;21870;42.812;74.628;2022-12-07T09:13:48;5.20;99.90
35746;DHT22;21870;42.812;74.628;2022-12-07T09:16:14;5.10;99.90
35746;DHT22;21870;42.812;74.628;2022-12-07T09:18:40;4.80;99.90
35746;DHT22;21870;42.812;74.628;2022-12-07T09:21:07;4.80;99.90
35746;DHT22;21870;42.812;74.628;2022-12-07T09:23:33;4.70;99.90
35746;DHT22;21870;42.812;74.628;2022-12-07T09:26:01;4.40;99.90
35746;DHT22;21870;42.812;74.628;2022-12-07T09:28:27;4.30;99.90
35746;DHT22;21870;42.812;74.628;2022-12-07T09:30:53;4.10;99.90
35746;DHT22;21870;42.812;74.628;2022-12-07T09:33:19;3.90;99.90
35746;DHT22;21870;42.812;74.628;2022-12-07T09:35:47;3.80;99.90
35746;DHT22;21870;42.812;74.628;2022-12-07T09:38:13;3.70;99.90
35746;DHT22;21870;42.812;74.628;2022-12-07T09:40:40;3.60;99.90
35746;DHT22;21870;42.812;74.628;2022-12-07T09:43:20;3.50;99.90
35746;DHT22;21870;42.812;74.628;2022-12-07T09:45:49;3.40;99.90
35746;DHT22;21870;42.812;74.628;2022-12-07T09:48:18;3.30;99.90
35746;DHT22;21870;42.812;74.628;2022-12-07T09:50:47;3.10;99.90
35746;DHT22;21870;42.812;74.628;2022-12-07T09:53:36;3.10;99.90
35746;DHT22;21870;42.812;74.628;2022-12-07T09:56:04;3.00;99.90
35746;DHT22;21870;42.812;74.628;2022-12-07T09:58:31;2.90;99.90
35746;DHT22;21870;42.812;74.628;2022-12-07T10:01:21;2.90;99.90
35746;DHT22;21870;42.812;74.628;2022-12-07T10:03:58;2.90;99.90
35746;DHT22;21870;42.812;74.628;2022-12-07T10:06:25;2.90;99.90
35746;DHT22;21870;42.812;74.628;2022-12-07T10:08:51;2.90;99.90
35746;DHT22;21870;42.812;74.628;2022-12-07T10:11:18;2.90;99.90
35746;DHT22;21870;42.812;74.628;2022-12-07T10:13:49;2.90;99.90
35746;DHT22;21870;42.812;74.628;2022-12-07T10:18:51;3.00;99.90
35746;DHT22;21870;42.812;74.628;2022-12-07T10:21:19;2.90;99.90
35746;DHT22;21870;42.812;74.628;2022-12-07T10:24:13;2.90;99.90
35746;DHT22;21870;42.812;74.628;2022-12-07T10:32:04;2.50;99.90
35746;DHT22;21870;42.812;74.628;2022-12-07T10:34:35;2.40;99.90
35746;DHT22;21870;42.812;74.628;2022-12-07T10:39:46;2.40;99.90
35746;DHT22;21870;42.812;74.628;2022-12-07T10:42:33;2.30;99.90
35746;DHT22;21870;42.812;74.628;2022-12-07T10:45:17;2.00;99.90
35746;DHT22;21870;42.812;74.628;2022-12-07T10:53:28;1.70;99.90
35746;DHT22;21870;42.812;74.628;2022-12-07T10:58:50;1.60;99.90
35746;DHT22;21870;42.812;74.628;2022-12-07T11:02:22;1.40;99.90
35746;DHT22;21870;42.812;74.628;2022-12-07T11:04:23;1.30;99.90
35746;DHT22;21870;42.812;74.628;2022-12-07T11:10:05;1.10;99.90
35746;DHT22;21870;42.812;74.628;2022-12-07T11:20:53;0.70;99.90
35746;DHT22;21870;42.812;74.628;2022-12-07T11:23:49;0.70;99.90
35746;DHT22;21870;42.812;74.628;2022-12-07T11:32:17;0.40;99.90
35746;DHT22;21870;42.812;74.628;2022-12-07T11:35:08;0.40;99.90
35746;DHT22;21870;42.812;74.628;2022-12-07T11:37:37;0.30;99.90
35746;DHT22;21870;42.812;74.628;2022-12-07T11:40:15;0.10;99.90
35746;DHT22;21870;42.812;74.628;2022-12-07T11:42:49;0.00;99.90
35746;DHT22;21870;42.812;74.628;2022-12-07T11:45:32;0.10;99.90
35746;DHT22;21870;42.812;74.628;2022-12-07T11:48:08;-0.10;99.90
35746;DHT22;21870;42.812;74.628;2022-12-07T11:50:52;-0.20;99.90
35746;DHT22;21870;42.812;74.628;2022-12-07T11:53:25;-0.20;99.90
35746;DHT22;21870;42.812;74.628;2022-12-07T11:56:08;-0.20;99.90
35746;DHT22;21870;42.812;74.628;2022-12-07T12:03:46;-0.20;99.90
35746;DHT22;21870;42.812;74.628;2022-12-07T12:06:13;-0.30;99.90
35746;DHT22;21870;42.812;74.628;2022-12-07T12:09:31;-0.40;99.90
35746;DHT22;21870;42.812;74.628;2022-12-07T12:17:56;-0.40;99.90
35746;DHT22;21870;42.812;74.628;2022-12-07T12:20:38;-0.40;99.90
35746;DHT22;21870;42.812;74.628;2022-12-07T12:23:07;-0.50;99.90
35746;DHT22;21870;42.812;74.628;2022-12-07T12:25:45;-0.50;99.90
35746;DHT22;21870;42.812;74.628;2022-12-07T12:33:31;-0.60;99.90
35746;DHT22;21870;42.812;74.628;2022-12-07T12:46:57;-0.40;99.90
35746;DHT22;21870;42.812;74.628;2022-12-07T12:51:59;-0.40;99.90
35746;DHT22;21870;42.812;74.628;2022-12-07T12:54:33;-0.50;99.90
35746;DHT22;21870;42.812;74.628;2022-12-07T12:57:24;-0.40;99.90
35746;DHT22;21870;42.812;74.628;2022-12-07T13:04:56;-0.50;99.90
35746;DHT22;21870;42.812;74.628;2022-12-07T13:26:36;-0.40;99.90
35746;DHT22;21870;42.812;74.628;2022-12-07T13:29:18;-0.40;99.90
35746;DHT22;21870;42.812;74.628;2022-12-07T13:31:46;-0.40;99.90
35746;DHT22;21870;42.812;74.628;2022-12-07T13:34:37;-0.40;99.90
35746;DHT22;21870;42.812;74.628;2022-12-07T13:37:28;-0.40;99.90
35746;DHT22;21870;42.812;74.628;2022-12-07T13:40:01;-0.40;99.90
35746;DHT22;21870;42.812;74.628;2022-12-07T13:42:38;-0.40;99.90
35746;DHT22;21870;42.812;74.628;2022-12-07T13:45:24;-0.50;99.90
35746;DHT22;21870;42.812;74.628;2022-12-07T13:48:35;-0.40;99.90
35746;DHT22;21870;42.812;74.628;2022-12-07T13:51:19;-0.50;99.90
35746;DHT22;21870;42.812;74.628;2022-12-07T13:53:51;-0.50;99.90
35746;DHT22;21870;42.812;74.628;2022-12-07T13:56:17;-0.60;99.90
35746;DHT22;21870;42.812;74.628;2022-12-07T13:58:43;-0.50;99.90
35746;DHT22;21870;42.812;74.628;2022-12-07T14:01:10;-0.50;99.90
35746;DHT22;21870;42.812;74.628;2022-12-07T14:03:36;-0.50;99.90
35746;DHT22;21870;42.812;74.628;2022-12-07T14:08:43;-0.50;99.90
35746;DHT22;21870;42.812;74.628;2022-12-07T14:11:17;-0.50;99.90
35746;DHT22;21870;42.812;74.628;2022-12-07T14:13:58;-0.60;99.90
35746;DHT22;21870;42.812;74.628;2022-12-07T14:18:56;-0.80;99.90
35746;DHT22;21870;42.812;74.628;2022-12-07T14:21:26;-0.70;99.90
35746;DHT22;21870;42.812;74.628;2022-12-07T14:26:42;-0.70;99.90
35746;DHT22;21870;42.812;74.628;2022-12-07T14:29:30;-0.80;99.90
35746;DHT22;21870;42.812;74.628;2022-12-07T14:32:01;-0.70;99.90
35746;DHT22;21870;42.812;74.628;2022-12-07T14:34:27;-0.70;99.90
35746;DHT22;21870;42.812;74.628;2022-12-07T14:36:53;-0.70;99.90
35746;DHT22;21870;42.812;74.628;2022-12-07T14:39:19;-0.70;99.90
35746;DHT22;21870;42.812;74.628;2022-12-07T14:41:45;-0.70;99.90
35746;DHT22;21870;42.812;74.628;2022-12-07T14:44:20;-0.60;99.90
35746;DHT22;21870;42.812;74.628;2022-12-07T14:46:50;-0.70;99.90
35746;DHT22;21870;42.812;74.628;2022-12-07T14:49:17;-0.70;99.90
35746;DHT22;21870;42.812;74.628;2022-12-07T14:51:44;-0.70;99.90
35746;DHT22;21870;42.812;74.628;2022-12-07T14:54:18;-0.70;99.90
35746;DHT22;21870;42.812;74.628;2022-12-07T14:56:45;-0.70;99.90
35746;DHT22;21870;42.812;74.628;2022-12-07T14:59:12;-0.60;99.90
35746;DHT22;21870;42.812;74.628;2022-12-07T15:01:38;-0.60;99.90
35746;DHT22;21870;42.812;74.628;2022-12-07T15:04:04;-0.60;99.90
35746;DHT22;21870;42.812;74.628;2022-12-07T15:06:30;-0.70;99.90
35746;DHT22;21870;42.812;74.628;2022-12-07T15:08:56;-0.60;99.90
35746;DHT22;21870;42.812;74.628;2022-12-07T15:11:22;-0.60;99.90
35746;DHT22;21870;42.812;74.628;2022-12-07T15:13:48;-0.60;99.90
35746;DHT22;21870;42.812;74.628;2022-12-07T15:16:33;-0.60;99.90
35746;DHT22;21870;42.812;74.628;2022-12-07T15:18:59;-0.60;99.90
35746;DHT22;21870;42.812;74.628;2022-12-07T15:21:25;-0.60;99.90
35746;DHT22;21870;42.812;74.628;2022-12-07T15:23:51;-0.60;99.90
35746;DHT22;21870;42.812;74.628;2022-12-07T15:26:17;-0.60;99.90
35746;DHT22;21870;42.812;74.628;2022-12-07T15:28:43;-0.60;99.90
35746;DHT22;21870;42.812;74.628;2022-12-07T15:31:14;-0.50;99.90
35746;DHT22;21870;42.812;74.628;2022-12-07T15:33:40;-0.50;99.90
35746;DHT22;21870;42.812;74.628;2022-12-07T15:36:07;-0.40;99.90
35746;DHT22;21870;42.812;74.628;2022-12-07T15:38:33;-0.30;99.90
35746;DHT22;21870;42.812;74.628;2022-12-07T15:40:59;-0.30;99.90
35746;DHT22;21870;42.812;74.628;2022-12-07T15:43:25;-0.30;99.90
35746;DHT22;21870;42.812;74.628;2022-12-07T15:46:09;-0.30;99.90
35746;DHT22;21870;42.812;74.628;2022-12-07T15:48:36;-0.40;99.90
35746;DHT22;21870;42.812;74.628;2022-12-07T15:51:07;-0.50;99.90
35746;DHT22;21870;42.812;74.628;2022-12-07T15:53:34;-0.50;99.90
35746;DHT22;21870;42.812;74.628;2022-12-07T15:56:00;-0.80;99.90
35746;DHT22;21870;42.812;74.628;2022-12-07T15:58:26;-0.80;99.90
35746;DHT22;21870;42.812;74.628;2022-12-07T16:00:52;-0.70;99.90
35746;DHT22;21870;42.812;74.628;2022-12-07T16:03:18;-0.80;99.90
35746;DHT22;21870;42.812;74.628;2022-12-07T16:05:51;-0.70;99.90
35746;DHT22;21870;42.812;74.628;2022-12-07T16:08:17;-0.80;99.90
35746;DHT22;21870;42.812;74.628;2022-12-07T16:10:44;-0.70;99.90
35746;DHT22;21870;42.812;74.628;2022-12-07T16:13:10;-0.70;99.90
35746;DHT22;21870;42.812;74.628;2022-12-07T16:15:40;-0.70;99.90
35746;DHT22;21870;42.812;74.628;2022-12-07T16:18:07;-0.80;99.90
35746;DHT22;21870;42.812;74.628;2022-12-07T16:20:33;-0.90;99.90
35746;DHT22;21870;42.812;74.628;2022-12-07T16:22:59;-0.90;99.90
35746;DHT22;21870;42.812;74.628;2022-12-07T16:25:25;-0.90;99.90
35746;DHT22;21870;42.812;74.628;2022-12-07T16:27:52;-0.90;99.90
35746;DHT22;21870;42.812;74.628;2022-12-07T16:30:19;-0.90;99.90
35746;DHT22;21870;42.812;74.628;2022-12-07T16:32:45;-0.90;99.90
35746;DHT22;21870;42.812;74.628;2022-12-07T16:35:12;-1.00;99.90
35746;DHT22;21870;42.812;74.628;2022-12-07T16:37:41;-1.00;99.90
35746;DHT22;21870;42.812;74.628;2022-12-07T16:40:07;-1.10;99.90
35746;DHT22;21870;42.812;74.628;2022-12-07T16:42:37;-1.10;99.90
35746;DHT22;21870;42.812;74.628;2022-12-07T16:45:03;-1.10;99.90
35746;DHT22;21870;42.812;74.628;2022-12-07T16:47:29;-0.90;99.90
35746;DHT22;21870;42.812;74.628;2022-12-07T16:49:56;-0.70;99.90
35746;DHT22;21870;42.812;74.628;2022-12-07T16:52:22;-0.60;99.90
35746;DHT22;21870;42.812;74.628;2022-12-07T16:54:50;-0.70;99.90
35746;DHT22;21870;42.812;74.628;2022-12-07T16:57:17;-0.90;99.90
35746;DHT22;21870;42.812;74.628;2022-12-07T16:59:44;-1.10;99.90
35746;DHT22;21870;42.812;74.628;2022-12-07T17:02:11;-1.20;99.90
35746;DHT22;21870;42.812;74.628;2022-12-07T17:04:38;-1.30;99.90
35746;DHT22;21870;42.812;74.628;2022-12-07T17:07:08;-1.40;99.90
35746;DHT22;21870;42.812;74.628;2022-12-07T17:09:34;-1.40;99.90
35746;DHT22;21870;42.812;74.628;2022-12-07T17:12:01;-1.50;99.90
35746;DHT22;21870;42.812;74.628;2022-12-07T17:14:27;-1.50;99.90
35746;DHT22;21870;42.812;74.628;2022-12-07T17:17:11;-1.50;99.90
35746;DHT22;21870;42.812;74.628;2022-12-07T17:19:38;-1.30;99.90
35746;DHT22;21870;42.812;74.628;2022-12-07T17:22:04;-1.40;99.90
35746;DHT22;21870;42.812;74.628;2022-12-07T17:24:30;-1.50;99.90
35746;DHT22;21870;42.812;74.628;2022-12-07T17:26:56;-1.60;99.90
35746;DHT22;21870;42.812;74.628;2022-12-07T17:29:22;-1.70;99.90
35746;DHT22;21870;42.812;74.628;2022-12-07T17:31:48;-1.90;99.90
35746;DHT22;21870;42.812;74.628;2022-12-07T17:34:15;-1.80;99.90
35746;DHT22;21870;42.812;74.628;2022-12-07T17:36:42;-1.90;99.90
35746;DHT22;21870;42.812;74.628;2022-12-07T17:39:09;-1.90;99.90
35746;DHT22;21870;42.812;74.628;2022-12-07T17:41:37;-1.90;99.90
35746;DHT22;21870;42.812;74.628;2022-12-07T17:44:22;-2.00;99.90
35746;DHT22;21870;42.812;74.628;2022-12-07T17:46:52;-2.10;99.90
35746;DHT22;21870;42.812;74.628;2022-12-07T17:49:24;-2.10;99.90
35746;DHT22;21870;42.812;74.628;2022-12-07T17:51:51;-2.00;99.90
35746;DHT22;21870;42.812;74.628;2022-12-07T17:54:35;-2.00;99.90
35746;DHT22;21870;42.812;74.628;2022-12-07T17:57:01;-2.10;99.90